createdAt,value
2023-01-29T00:01:54.210Z,10.82
2023-01-29T00:04:21.260Z,11.43
2023-01-29T00:06:48.329Z,9.80
2023-01-29T00:09:15.386Z,11.57
2023-01-29T00:11:42.675Z,11.40
2023-01-29T00:14:09.844Z,13.43
2023-01-29T00:16:37.039Z,13.20
2023-01-29T00:19:04.346Z,9.88
2023-01-29T00:21:32.342Z,8.20
2023-01-29T00:24:00.138Z,8.05
2023-01-29T00:26:27.656Z,7.13
2023-01-29T00:28:57.163Z,7.78
2023-01-29T00:31:25.661Z,7.22
2023-01-29T00:33:53.588Z,6.63
2023-01-29T00:36:22.269Z,6.85
2023-01-29T00:38:58.930Z,6.93
2023-01-29T00:41:49.786Z,7.10
2023-01-29T00:44:35.873Z,6.78
2023-01-29T00:47:03.623Z,5.72
2023-01-29T00:49:30.686Z,5.85
2023-01-29T00:52:16.978Z,5.90
2023-01-29T00:54:44.094Z,6.72
2023-01-29T00:57:11.185Z,5.78
2023-01-29T00:59:38.361Z,5.70
2023-01-29T01:02:24.050Z,5.57
2023-01-29T01:04:51.140Z,6.13
2023-01-29T01:07:18.219Z,5.65
2023-01-29T01:10:03.637Z,5.60
2023-01-29T01:12:31.553Z,5.57
2023-01-29T01:14:58.531Z,6.00
2023-01-29T01:17:25.617Z,5.57
2023-01-29T01:19:52.583Z,5.32
2023-01-29T01:22:20.086Z,6.00
2023-01-29T01:24:47.024Z,5.70
2023-01-29T01:27:14.266Z,5.30
2023-01-29T01:29:41.443Z,5.13
2023-01-29T01:32:08.505Z,4.65
2023-01-29T01:34:35.998Z,4.40
2023-01-29T01:37:02.987Z,4.00
2023-01-29T01:39:30.464Z,3.70
2023-01-29T01:41:57.523Z,4.60
2023-01-29T01:44:54.670Z,4.35
2023-01-29T01:47:45.242Z,4.35
2023-01-29T01:50:24.309Z,4.30
2023-01-29T01:52:55.565Z,4.63
2023-01-29T01:55:27.768Z,4.53
2023-01-29T01:58:03.481Z,4.63
2023-01-29T02:00:30.670Z,4.88
2023-01-29T02:03:16.618Z,4.53
2023-01-29T02:06:02.005Z,5.00
2023-01-29T02:09:05.908Z,4.18
2023-01-29T02:11:36.454Z,3.95
2023-01-29T02:14:03.756Z,3.67
2023-01-29T02:16:31.001Z,3.70
2023-01-29T02:18:58.129Z,4.50
2023-01-29T02:21:59.846Z,4.15
2023-01-29T02:24:59.882Z,4.10
2023-01-29T02:27:58.415Z,4.00
2023-01-29T02:30:53.173Z,4.25
2023-01-29T02:33:22.513Z,4.50
2023-01-29T02:36:04.664Z,4.85
2023-01-29T02:38:46.802Z,5.00
2023-01-29T02:41:30.228Z,4.50
2023-01-29T02:44:03.874Z,4.50
2023-01-29T02:46:51.331Z,4.15
2023-01-29T02:49:25.150Z,4.28
2023-01-29T02:52:05.359Z,5.10
2023-01-29T02:54:42.220Z,3.90
2023-01-29T02:57:18.728Z,3.95
2023-01-29T03:00:12.148Z,4.15
2023-01-29T03:02:52.365Z,4.25
2023-01-29T03:05:29.734Z,4.72
2023-01-29T03:08:04.285Z,5.03
2023-01-29T03:10:44.072Z,5.10
2023-01-29T03:13:20.926Z,4.47
2023-01-29T03:16:01.740Z,4.55
2023-01-29T03:18:46.998Z,4.65
2023-01-29T03:21:43.762Z,4.30
2023-01-29T03:24:32.456Z,4.68
2023-01-29T03:27:23.931Z,4.75
2023-01-29T03:30:12.585Z,4.90
2023-01-29T03:33:01.176Z,4.85
2023-01-29T03:35:36.746Z,4.97
2023-01-29T03:38:07.688Z,4.45
2023-01-29T03:40:56.713Z,4.18
2023-01-29T03:43:37.414Z,4.50
2023-01-29T03:46:19.197Z,4.60
2023-01-29T03:49:08.490Z,4.22
2023-01-29T03:51:51.700Z,4.00
2023-01-29T03:54:30.002Z,4.68
2023-01-29T03:57:03.270Z,4.63
2023-01-29T03:59:59.547Z,5.15
2023-01-29T04:02:49.420Z,4.68
2023-01-29T04:05:21.266Z,5.28
2023-01-29T04:08:11.239Z,5.07
2023-01-29T04:10:41.618Z,5.10
2023-01-29T04:13:14.349Z,4.50
2023-01-29T04:15:49.832Z,4.90
2023-01-29T04:18:19.401Z,5.10
2023-01-29T04:21:07.522Z,4.90
2023-01-29T04:23:34.709Z,4.97
2023-01-29T04:26:21.919Z,5.18
2023-01-29T04:29:08.790Z,4.90
2023-01-29T04:31:48.034Z,5.60
2023-01-29T04:34:57.550Z,4.90
2023-01-29T04:37:40.374Z,5.10
2023-01-29T04:40:31.919Z,4.85
2023-01-29T04:43:37.136Z,5.07
2023-01-29T04:46:16.262Z,4.72
2023-01-29T04:48:58.553Z,5.13
2023-01-29T04:51:43.312Z,4.80
2023-01-29T04:54:22.060Z,5.10
2023-01-29T04:57:16.441Z,4.80
2023-01-29T04:59:48.614Z,5.00
2023-01-29T05:02:15.634Z,5.70
2023-01-29T05:04:44.973Z,5.60
2023-01-29T05:07:15.267Z,5.05
2023-01-29T05:09:45.578Z,5.30
2023-01-29T05:12:17.937Z,5.40
2023-01-29T05:14:47.783Z,5.05
2023-01-29T05:17:18.411Z,4.65
2023-01-29T05:19:46.509Z,4.90
2023-01-29T05:22:17.952Z,4.57
2023-01-29T05:24:46.471Z,4.82
2023-01-29T05:27:38.915Z,4.65
2023-01-29T05:30:07.165Z,5.25
2023-01-29T05:32:34.132Z,5.68
2023-01-29T05:35:01.356Z,5.60
2023-01-29T05:37:28.430Z,5.55
2023-01-29T05:39:55.378Z,5.65
2023-01-29T05:42:22.515Z,5.90
2023-01-29T05:44:49.595Z,6.57
2023-01-29T05:47:20.955Z,6.68
2023-01-29T05:49:48.060Z,6.47
2023-01-29T05:52:15.024Z,7.35
2023-01-29T05:54:42.035Z,8.48
2023-01-29T05:57:09.025Z,8.35
2023-01-29T05:59:36.140Z,6.75
2023-01-29T06:02:03.215Z,5.97
2023-01-29T06:04:30.357Z,5.97
2023-01-29T06:06:57.433Z,6.60
2023-01-29T06:09:24.508Z,5.70
2023-01-29T06:11:51.613Z,5.80
2023-01-29T06:14:18.549Z,6.45
2023-01-29T06:16:45.649Z,6.25
2023-01-29T06:19:12.604Z,6.88
2023-01-29T06:21:39.653Z,6.90
2023-01-29T06:24:07.014Z,5.90
2023-01-29T06:26:34.163Z,7.60
2023-01-29T06:29:01.122Z,6.75
2023-01-29T06:31:38.464Z,6.70
2023-01-29T06:34:07.567Z,7.45
2023-01-29T06:36:35.053Z,7.07
2023-01-29T06:39:02.029Z,7.00
2023-01-29T06:41:29.225Z,6.70
2023-01-29T06:43:56.282Z,7.63
2023-01-29T06:46:23.379Z,9.10
2023-01-29T06:48:50.372Z,10.85
2023-01-29T06:51:17.512Z,13.60
2023-01-29T06:53:46.221Z,14.70
2023-01-29T06:56:13.767Z,15.05
2023-01-29T06:58:40.710Z,13.30
2023-01-29T07:01:17.356Z,10.90
2023-01-29T07:03:52.467Z,9.88
2023-01-29T07:06:19.770Z,9.18
2023-01-29T07:08:47.048Z,9.55
2023-01-29T07:11:14.253Z,8.85
2023-01-29T07:13:41.302Z,9.50
2023-01-29T07:16:08.367Z,8.52
2023-01-29T07:18:35.712Z,8.43
2023-01-29T07:21:08.608Z,8.57
2023-01-29T07:23:35.920Z,8.48
2023-01-29T07:26:04.929Z,7.65
2023-01-29T07:28:32.407Z,7.68
2023-01-29T07:31:00.046Z,8.18
2023-01-29T07:33:27.232Z,7.72
2023-01-29T07:35:54.324Z,8.32
2023-01-29T07:38:21.502Z,9.07
2023-01-29T07:40:49.196Z,7.95
2023-01-29T07:43:17.073Z,8.48
2023-01-29T07:45:44.192Z,8.85
2023-01-29T07:48:13.090Z,8.85
2023-01-29T07:50:40.711Z,13.30
2023-01-29T07:53:12.509Z,9.15
2023-01-29T07:55:39.664Z,9.20
2023-01-29T07:58:06.994Z,8.73
2023-01-29T08:00:34.122Z,9.40
2023-01-29T08:03:06.707Z,8.63
2023-01-29T08:05:34.183Z,8.57
2023-01-29T08:08:07.029Z,8.85
2023-01-29T08:10:39.245Z,8.35
2023-01-29T08:13:08.416Z,9.27
2023-01-29T08:15:38.057Z,9.68
2023-01-29T08:18:06.889Z,9.68
2023-01-29T08:20:33.854Z,8.90
2023-01-29T08:23:09.077Z,9.05
2023-01-29T08:25:36.844Z,8.13
2023-01-29T08:28:04.847Z,9.55
2023-01-29T08:30:34.577Z,9.38
2023-01-29T08:33:03.089Z,8.73
2023-01-29T08:35:30.481Z,8.93
2023-01-29T08:38:00.005Z,8.65
2023-01-29T08:40:28.833Z,8.13
2023-01-29T08:43:09.210Z,6.10
2023-01-29T08:45:42.187Z,7.15
2023-01-29T08:48:09.921Z,9.85
2023-01-29T08:50:37.664Z,8.20
2023-01-29T08:53:10.061Z,10.20
2023-01-29T08:55:38.768Z,9.93
2023-01-29T08:58:10.542Z,11.93
2023-01-29T09:00:37.664Z,11.88
2023-01-29T09:03:05.245Z,11.48
2023-01-29T09:05:32.778Z,11.95
2023-01-29T09:07:59.846Z,11.35
2023-01-29T09:10:27.321Z,10.75
2023-01-29T09:12:54.340Z,12.50
2023-01-29T09:15:21.439Z,12.40
2023-01-29T09:17:51.341Z,17.45
2023-01-29T09:20:19.751Z,17.25
2023-01-29T09:22:47.456Z,16.27
2023-01-29T09:25:15.155Z,16.90
2023-01-29T09:27:42.514Z,14.65
2023-01-29T09:30:10.197Z,13.20
2023-01-29T09:32:52.603Z,12.05
2023-01-29T09:35:20.905Z,12.00
2023-01-29T09:37:49.274Z,11.55
2023-01-29T09:40:35.839Z,8.95
2023-01-29T09:43:23.817Z,7.50
2023-01-29T09:45:58.644Z,8.38
2023-01-29T09:48:29.272Z,7.07
2023-01-29T09:51:00.694Z,8.20
2023-01-29T09:53:41.235Z,8.77
2023-01-29T09:56:11.156Z,8.23
2023-01-29T09:58:41.876Z,7.00
2023-01-29T10:01:16.147Z,7.15
2023-01-29T10:03:55.347Z,8.18
2023-01-29T10:06:53.518Z,7.63
2023-01-29T10:09:23.258Z,14.00
2023-01-29T10:12:22.776Z,13.25
2023-01-29T10:15:01.598Z,10.98
2023-01-29T10:18:04.267Z,8.23
2023-01-29T10:20:40.364Z,7.25
2023-01-29T10:23:17.515Z,6.00
2023-01-29T10:25:47.582Z,6.00
2023-01-29T10:28:46.202Z,7.30
2023-01-29T10:31:22.674Z,5.90
2023-01-29T10:34:01.920Z,6.35
2023-01-29T10:36:49.018Z,6.80
2023-01-29T10:39:25.894Z,7.32
2023-01-29T10:42:01.848Z,6.40
2023-01-29T10:44:52.243Z,5.80
2023-01-29T10:47:32.483Z,6.68
2023-01-29T10:50:17.059Z,5.97
2023-01-29T10:52:51.291Z,7.05
2023-01-29T10:55:54.946Z,5.80
2023-01-29T10:58:36.909Z,6.88
2023-01-29T11:01:04.598Z,6.22
2023-01-29T11:03:34.198Z,5.80
2023-01-29T11:06:24.355Z,6.15
2023-01-29T11:08:56.943Z,6.35
2023-01-29T11:11:33.691Z,5.82
2023-01-29T11:14:07.319Z,5.10
2023-01-29T11:16:43.361Z,5.03
2023-01-29T11:19:11.391Z,4.40
2023-01-29T11:22:01.946Z,3.65
2023-01-29T11:24:29.193Z,3.08
2023-01-29T11:26:59.217Z,3.80
2023-01-29T11:29:45.105Z,4.63
2023-01-29T11:32:19.659Z,3.53
2023-01-29T11:35:05.297Z,4.55
2023-01-29T11:37:40.625Z,3.42
2023-01-29T11:40:20.064Z,4.20
2023-01-29T11:42:47.626Z,3.70
2023-01-29T11:45:20.633Z,3.83
2023-01-29T11:47:53.977Z,4.07
2023-01-29T11:50:25.234Z,3.90
2023-01-29T11:52:52.982Z,2.92
2023-01-29T11:55:23.876Z,3.42
2023-01-29T11:58:02.386Z,3.38
2023-01-29T12:00:33.315Z,3.65
2023-01-29T12:03:11.451Z,2.53
2023-01-29T12:05:39.776Z,2.80
2023-01-29T12:08:17.364Z,3.30
2023-01-29T12:10:44.829Z,3.80
2023-01-29T12:13:20.154Z,3.80
2023-01-29T12:15:49.052Z,2.50
2023-01-29T12:18:18.761Z,2.17
2023-01-29T12:20:55.351Z,2.22
2023-01-29T12:23:46.269Z,2.50
2023-01-29T12:26:16.654Z,2.88
2023-01-29T12:28:55.369Z,3.22
2023-01-29T12:31:26.794Z,2.13
2023-01-29T12:33:59.535Z,2.28
2023-01-29T12:36:38.878Z,2.20
2023-01-29T12:39:06.307Z,2.05
2023-01-29T12:41:50.994Z,2.30
2023-01-29T12:44:26.360Z,2.17
2023-01-29T12:46:57.873Z,2.40
2023-01-29T12:49:38.331Z,2.00
2023-01-29T12:52:15.242Z,3.10
2023-01-29T12:55:03.757Z,2.30
2023-01-29T12:57:50.329Z,2.38
2023-01-29T13:00:23.130Z,2.03
2023-01-29T13:03:20.689Z,2.25
2023-01-29T13:05:53.076Z,2.30
2023-01-29T13:08:20.175Z,1.88
2023-01-29T13:10:51.247Z,1.95
2023-01-29T13:13:36.883Z,2.33
2023-01-29T13:16:07.773Z,2.30
2023-01-29T13:18:49.212Z,2.08
2023-01-29T13:21:23.969Z,2.22
2023-01-29T13:23:59.343Z,2.00
2023-01-29T13:26:26.982Z,1.80
2023-01-29T13:28:54.320Z,2.55
2023-01-29T13:31:21.399Z,2.20
2023-01-29T13:34:14.432Z,2.05
2023-01-29T13:36:47.144Z,2.33
2023-01-29T13:39:29.034Z,2.10
2023-01-29T13:41:58.452Z,2.00
2023-01-29T13:44:38.059Z,1.90
2023-01-29T13:47:07.097Z,1.80
2023-01-29T13:49:40.861Z,2.10
2023-01-29T13:52:26.689Z,2.22
2023-01-29T13:55:03.212Z,2.33
2023-01-29T13:57:56.927Z,2.20
2023-01-29T14:00:31.200Z,2.30
2023-01-29T14:03:01.330Z,2.30
2023-01-29T14:05:31.224Z,2.13
2023-01-29T14:07:59.733Z,2.05
2023-01-29T14:10:29.155Z,2.92
2023-01-29T14:13:05.162Z,2.70
2023-01-29T14:15:37.040Z,2.45
2023-01-29T14:18:26.444Z,2.10
2023-01-29T14:21:07.226Z,2.10
2023-01-29T14:23:42.538Z,2.50
2023-01-29T14:26:38.786Z,2.42
2023-01-29T14:29:33.822Z,2.38
2023-01-29T14:32:07.965Z,2.03
2023-01-29T14:34:36.517Z,2.25
2023-01-29T14:37:15.695Z,2.35
2023-01-29T14:39:45.353Z,2.30
2023-01-29T14:42:24.108Z,2.40
2023-01-29T14:45:09.020Z,3.20
2023-01-29T14:47:38.980Z,2.80
2023-01-29T14:50:34.901Z,2.63
2023-01-29T14:53:11.166Z,2.65
2023-01-29T14:55:40.885Z,2.80
2023-01-29T14:58:15.186Z,3.28
2023-01-29T15:00:46.105Z,2.50
2023-01-29T15:03:41.468Z,2.92
2023-01-29T15:06:15.272Z,2.47
2023-01-29T15:08:50.925Z,2.72
2023-01-29T15:11:33.944Z,3.20
2023-01-29T15:14:16.994Z,2.78
2023-01-29T15:17:07.548Z,3.05
2023-01-29T15:19:46.156Z,3.10
2023-01-29T15:22:17.655Z,2.38
2023-01-29T15:24:46.972Z,2.55
2023-01-29T15:27:20.498Z,3.25
2023-01-29T15:29:59.992Z,2.95
2023-01-29T15:32:32.348Z,3.30
2023-01-29T15:35:00.825Z,3.90
2023-01-29T15:37:31.395Z,3.30
2023-01-29T15:39:59.756Z,3.20
2023-01-29T15:42:29.986Z,3.60
2023-01-29T15:44:57.454Z,7.50
2023-01-29T15:47:31.095Z,12.73
2023-01-29T15:49:58.995Z,12.32
2023-01-29T15:52:31.434Z,5.70
2023-01-29T15:55:04.458Z,5.00
2023-01-29T15:57:37.746Z,3.85
2023-01-29T16:00:07.670Z,3.50
2023-01-29T16:02:42.158Z,3.65
2023-01-29T16:05:19.052Z,3.75
2023-01-29T16:07:47.548Z,3.45
2023-01-29T16:10:24.420Z,3.58
2023-01-29T16:12:53.213Z,3.90
2023-01-29T16:15:53.847Z,3.80
2023-01-29T16:18:24.448Z,4.15
2023-01-29T16:20:54.324Z,3.90
2023-01-29T16:23:30.690Z,4.40
2023-01-29T16:26:03.777Z,4.50
2023-01-29T16:28:31.096Z,4.72
2023-01-29T16:31:01.926Z,5.03
2023-01-29T16:33:36.418Z,4.25
2023-01-29T16:36:11.721Z,4.40
2023-01-29T16:38:43.380Z,5.10
2023-01-29T16:41:24.071Z,4.53
2023-01-29T16:43:58.500Z,4.72
2023-01-29T16:46:45.580Z,4.07
2023-01-29T16:49:31.579Z,3.47
2023-01-29T16:52:28.131Z,4.40
2023-01-29T16:55:35.692Z,4.85
2023-01-29T16:58:16.235Z,4.30
2023-01-29T17:00:46.664Z,4.70
2023-01-29T17:03:16.323Z,4.80
2023-01-29T17:05:43.910Z,4.20
2023-01-29T17:08:35.747Z,4.75
2023-01-29T17:11:03.472Z,4.97
2023-01-29T17:13:35.132Z,4.53
2023-01-29T17:16:14.247Z,6.10
2023-01-29T17:18:41.525Z,5.90
2023-01-29T17:21:08.714Z,6.65
2023-01-29T17:23:36.210Z,6.10
2023-01-29T17:26:03.395Z,7.68
2023-01-29T17:28:31.273Z,7.28
2023-01-29T17:31:06.207Z,6.40
2023-01-29T17:33:37.498Z,6.35
2023-01-29T17:36:05.258Z,6.53
2023-01-29T17:38:32.972Z,6.40
2023-01-29T17:41:00.224Z,5.95
2023-01-29T17:43:27.286Z,6.15
2023-01-29T17:45:54.810Z,5.82
2023-01-29T17:48:27.850Z,5.72
2023-01-29T17:51:02.425Z,5.72
2023-01-29T17:53:44.369Z,6.38
2023-01-29T17:56:27.633Z,5.97
2023-01-29T17:58:54.900Z,5.25
2023-01-29T18:01:22.115Z,5.43
2023-01-29T18:03:49.305Z,6.05
2023-01-29T18:06:26.389Z,6.10
2023-01-29T18:08:53.613Z,6.53
2023-01-29T18:11:20.603Z,5.80
2023-01-29T18:13:49.110Z,5.97
2023-01-29T18:16:18.736Z,6.30
2023-01-29T18:18:46.401Z,6.35
2023-01-29T18:21:13.683Z,6.35
2023-01-29T18:23:41.163Z,5.97
2023-01-29T18:26:12.035Z,5.78
2023-01-29T18:28:39.397Z,6.47
2023-01-29T18:31:06.803Z,6.57
2023-01-29T18:33:35.580Z,6.70
2023-01-29T18:36:05.091Z,7.15
2023-01-29T18:38:33.544Z,6.95
2023-01-29T18:41:10.725Z,6.95
2023-01-29T18:43:40.615Z,6.75
2023-01-29T18:46:08.333Z,7.22
2023-01-29T18:48:35.688Z,7.35
2023-01-29T18:51:02.828Z,6.70
2023-01-29T18:53:30.047Z,6.97
2023-01-29T18:56:06.037Z,5.97
2023-01-29T18:58:37.063Z,5.60
2023-01-29T19:01:09.811Z,5.90
2023-01-29T19:03:39.225Z,5.97
2023-01-29T19:06:09.222Z,5.22
2023-01-29T19:08:36.771Z,5.72
2023-01-29T19:11:08.277Z,6.00
2023-01-29T19:13:36.888Z,5.72
2023-01-29T19:16:08.074Z,5.13
2023-01-29T19:18:35.574Z,5.28
2023-01-29T19:21:10.833Z,5.85
2023-01-29T19:23:38.768Z,5.35
2023-01-29T19:26:06.854Z,5.45
2023-01-29T19:28:34.645Z,5.82
2023-01-29T19:31:02.073Z,5.70
2023-01-29T19:33:29.715Z,6.95
2023-01-29T19:35:58.178Z,6.95
2023-01-29T19:38:25.974Z,6.55
2023-01-29T19:40:53.236Z,5.88
2023-01-29T19:43:20.700Z,5.50
2023-01-29T19:45:53.798Z,5.05
2023-01-29T19:48:21.971Z,5.40
2023-01-29T19:50:56.692Z,5.53
2023-01-29T19:53:25.104Z,5.57
2023-01-29T19:56:00.884Z,6.00
2023-01-29T19:58:29.386Z,5.80
2023-01-29T20:01:02.362Z,6.43
2023-01-29T20:03:29.933Z,5.75
2023-01-29T20:06:03.303Z,7.32
2023-01-29T20:08:31.702Z,7.55
2023-01-29T20:10:59.393Z,7.88
2023-01-29T20:13:27.062Z,7.47
2023-01-29T20:15:55.460Z,8.77
2023-01-29T20:18:22.840Z,9.73
2023-01-29T20:20:51.133Z,10.88
2023-01-29T20:23:31.732Z,11.30
2023-01-29T20:26:05.577Z,11.10
2023-01-29T20:28:33.676Z,12.30
2023-01-29T20:31:03.365Z,12.88
2023-01-29T20:33:31.402Z,12.75
2023-01-29T20:36:01.709Z,13.25
2023-01-29T20:38:31.963Z,12.93
2023-01-29T20:41:17.953Z,13.13
2023-01-29T20:43:47.709Z,12.55
2023-01-29T20:46:15.417Z,14.00
2023-01-29T20:48:43.670Z,13.45
2023-01-29T20:51:15.672Z,13.80
2023-01-29T20:53:48.587Z,13.30
2023-01-29T20:56:17.817Z,12.55
2023-01-29T20:58:47.060Z,12.68
2023-01-29T21:01:19.818Z,13.00
2023-01-29T21:03:48.038Z,12.57
2023-01-29T21:06:16.245Z,12.73
2023-01-29T21:08:43.656Z,11.32
2023-01-29T21:11:11.655Z,11.85
2023-01-29T21:13:39.105Z,12.38
2023-01-29T21:16:06.739Z,10.45
2023-01-29T21:18:34.123Z,11.75
2023-01-29T21:21:01.443Z,10.60
2023-01-29T21:23:28.745Z,10.90
2023-01-29T21:26:06.342Z,9.75
2023-01-29T21:28:35.060Z,10.70
2023-01-29T21:31:06.632Z,9.77
2023-01-29T21:33:35.360Z,9.43
2023-01-29T21:36:03.032Z,9.30
2023-01-29T21:38:30.615Z,8.95
2023-01-29T21:41:06.797Z,9.05
2023-01-29T21:43:34.330Z,8.80
2023-01-29T21:46:11.559Z,9.75
2023-01-29T21:48:40.555Z,9.65
2023-01-29T21:51:08.107Z,9.25
2023-01-29T21:53:37.158Z,9.55
2023-01-29T21:56:05.923Z,8.50
2023-01-29T21:58:33.714Z,8.05
2023-01-29T22:01:36.342Z,8.15
2023-01-29T22:03:48.186Z,7.82
2023-01-29T22:06:15.723Z,8.00
2023-01-29T22:08:43.108Z,8.35
2023-01-29T22:11:10.900Z,7.97
2023-01-29T22:13:38.251Z,8.43
2023-01-29T22:16:06.167Z,7.60
2023-01-29T22:18:33.935Z,7.70
2023-01-29T22:21:03.012Z,7.75
2023-01-29T22:23:31.439Z,7.63
2023-01-29T22:26:06.478Z,7.68
2023-01-29T22:28:33.860Z,7.35
2023-01-29T22:31:02.690Z,6.57
2023-01-29T22:33:30.197Z,6.97
2023-01-29T22:35:57.708Z,6.60
2023-01-29T22:38:25.153Z,6.65
2023-01-29T22:40:53.752Z,6.93
2023-01-29T22:43:21.573Z,6.30
2023-01-29T22:45:48.827Z,6.22
2023-01-29T22:48:16.027Z,6.93
2023-01-29T22:50:54.032Z,6.47
2023-01-29T22:53:21.337Z,6.25
2023-01-29T22:55:55.684Z,6.30
2023-01-29T22:58:22.846Z,6.35
2023-01-29T23:00:51.344Z,6.00
2023-01-29T23:03:18.716Z,6.32
2023-01-29T23:06:08.532Z,6.20
2023-01-29T23:08:35.906Z,5.65
2023-01-29T23:11:15.991Z,6.15
2023-01-29T23:13:50.945Z,5.22
2023-01-29T23:16:19.605Z,6.13
2023-01-29T23:18:50.784Z,6.07
2023-01-29T23:21:18.676Z,5.75
2023-01-29T23:23:46.015Z,5.43
2023-01-29T23:26:32.596Z,5.57
2023-01-29T23:29:00.089Z,5.93
2023-01-29T23:31:27.170Z,6.38
2023-01-29T23:33:54.371Z,5.85
2023-01-29T23:36:21.642Z,6.40
2023-01-29T23:38:48.762Z,6.25
2023-01-29T23:41:15.767Z,6.72
2023-01-29T23:43:42.751Z,6.65
2023-01-29T23:46:09.854Z,7.13
2023-01-29T23:48:37.052Z,6.70
2023-01-29T23:51:04.233Z,6.63
2023-01-29T23:53:31.207Z,6.93
2023-01-29T23:55:59.731Z,6.18
2023-01-29T23:58:28.417Z,5.70
